Time;durP1;ratioP1;P1;durP2;ratioP2;P2;SDS_P1;SDS_P2;PMS_P1;PMS_P2;Temp;Humidity;BMP_temperature;BMP_pressure;BME280_temperature;BME280_humidity;BME280_pressure;Samples;Min_cycle;Max_cycle;Signal;HPM_P1;HPM_P2
2023/08/09 00:00:47;;;;;;;10.10;5.65;;;;;;;14.41;100.00;101060.53;4987643;28;20037;-80
2023/08/09 00:03:13;;;;;;;10.95;5.63;;;;;;;14.50;100.00;101062.94;4987502;28;20026;-80
2023/08/09 00:05:38;;;;;;;11.32;6.57;;;;;;;14.20;100.00;101050.03;4992498;28;20395;-80
2023/08/09 00:08:04;;;;;;;7.80;4.80;;;;;;;14.51;100.00;101059.75;4985478;28;20062;-80
2023/08/09 00:10:29;;;;;;;8.95;5.10;;;;;;;14.41;100.00;101063.34;4987514;28;20030;-79
2023/08/09 00:12:55;;;;;;;8.95;5.65;;;;;;;14.42;100.00;101062.94;4984151;28;20056;-79
2023/08/09 00:15:20;;;;;;;10.52;5.70;;;;;;;14.40;100.00;101050.47;4977281;28;20440;-79
2023/08/09 00:17:46;;;;;;;8.55;5.68;;;;;;;14.55;100.00;101069.03;4983611;28;20052;-79
2023/08/09 00:20:11;;;;;;;10.38;5.50;;;;;;;14.52;100.00;101063.34;4982073;28;20030;-80
2023/08/09 00:22:38;;;;;;;9.60;4.82;;;;;;;14.56;100.00;101067.00;4991311;28;20105;-79
2023/08/09 00:25:05;;;;;;;9.65;5.43;;;;;;;14.44;100.00;101059.72;4982312;28;20083;-80
2023/08/09 00:27:30;;;;;;;7.63;5.00;;;;;;;14.16;100.00;101066.91;4983652;28;20483;-79
2023/08/09 00:29:56;;;;;;;10.60;5.28;;;;;;;14.31;100.00;101067.75;4980158;28;20042;-79
2023/08/09 00:32:21;;;;;;;8.10;5.68;;;;;;;14.42;100.00;101071.41;4987996;28;20035;-80
2023/08/09 00:34:47;;;;;;;7.80;4.63;;;;;;;14.46;100.00;101073.41;4965364;28;20601;-79
2023/08/09 00:37:13;;;;;;;11.68;5.90;;;;;;;14.28;100.00;101073.38;4972730;28;20019;-79
2023/08/09 00:39:38;;;;;;;6.68;5.32;;;;;;;14.35;100.00;101079.81;4982269;28;20061;-80
2023/08/09 00:42:04;;;;;;;9.70;5.85;;;;;;;14.23;100.00;101083.03;4983553;28;20118;-79
2023/08/09 00:44:29;;;;;;;8.98;5.63;;;;;;;14.16;100.00;101071.75;4982934;28;20102;-79
2023/08/09 00:46:55;;;;;;;8.63;5.55;;;;;;;14.37;100.00;101079.44;4986929;28;20058;-79
2023/08/09 00:49:20;;;;;;;8.18;5.20;;;;;;;14.20;100.00;101072.56;4981139;28;20759;-79
2023/08/09 00:51:47;;;;;;;10.55;5.72;;;;;;;14.33;100.00;101092.69;4990649;28;20061;-79
2023/08/09 00:54:12;;;;;;;10.07;5.95;;;;;;;14.26;100.00;101070.16;4983281;28;20112;-79
2023/08/09 00:56:38;;;;;;;10.35;6.28;;;;;;;14.21;100.00;101062.91;4973912;28;20082;-79
2023/08/09 00:59:04;;;;;;;10.07;5.72;;;;;;;14.24;100.00;101084.63;4976515;28;20096;-79
2023/08/09 01:01:29;;;;;;;8.90;5.20;;;;;;;14.22;100.00;101087.03;4986222;28;20034;-79
2023/08/09 01:03:55;;;;;;;10.65;5.45;;;;;;;14.23;100.00;101083.84;4976635;28;20030;-79
2023/08/09 01:06:30;;;;;;;8.50;5.72;;;;;;;14.20;100.00;101084.63;4986776;28;20026;-79
2023/08/09 01:09:31;;;;;;;10.77;6.50;;;;;;;14.24;100.00;101087.44;4984848;28;20033;-79
2023/08/09 01:12:11;;;;;;;10.82;6.20;;;;;;;14.17;100.00;101073.38;4987916;28;20096;-79
2023/08/09 01:14:41;;;;;;;11.15;5.85;;;;;;;14.22;100.00;101082.19;4981714;28;20046;-79
2023/08/09 01:17:08;;;;;;;10.07;6.38;;;;;;;14.17;100.00;101090.25;4980714;28;20479;-79
2023/08/09 01:19:34;;;;;;;7.95;5.32;;;;;;;14.14;100.00;101096.66;4987982;28;20088;-79
2023/08/09 01:22:06;;;;;;;11.45;6.40;;;;;;;14.15;100.00;101098.28;4983924;28;20038;-79
2023/08/09 01:24:33;;;;;;;8.30;5.10;;;;;;;14.28;100.00;101093.09;4981172;28;20030;-79
2023/08/09 01:26:58;;;;;;;8.13;5.93;;;;;;;14.33;100.00;101098.31;4977130;28;20030;-79
2023/08/09 01:29:24;;;;;;;10.45;5.70;;;;;;;14.20;100.00;101097.88;4983097;28;20034;-79
2023/08/09 01:31:51;;;;;;;9.55;6.13;;;;;;;14.15;100.00;101095.47;4978844;28;20379;-79
2023/08/09 01:34:17;;;;;;;9.45;6.05;;;;;;;14.11;100.00;101091.84;4981041;28;20148;-79
2023/08/09 01:36:50;;;;;;;9.70;6.80;;;;;;;14.13;100.00;101101.50;4983452;28;20053;-79
2023/08/09 01:39:21;;;;;;;8.82;5.75;;;;;;;14.23;100.00;101095.09;4989245;28;20037;-79
2023/08/09 01:41:48;;;;;;;12.20;7.13;;;;;;;14.05;100.00;101105.47;4987827;28;20042;-79
2023/08/09 01:44:14;;;;;;;10.20;6.78;;;;;;;14.11;100.00;101103.09;4978289;28;20466;-79
2023/08/09 01:46:40;;;;;;;11.80;6.72;;;;;;;14.14;100.00;101091.03;4986750;28;20116;-79
2023/08/09 01:49:21;;;;;;;11.50;6.82;;;;;;;14.14;100.00;101105.09;4984366;28;20100;-79
2023/08/09 01:51:47;;;;;;;8.73;5.40;;;;;;;14.22;100.00;101103.94;4984265;28;20352;-79
2023/08/09 01:54:12;;;;;;;10.98;6.30;;;;;;;13.98;100.00;101100.63;4988260;28;20034;-78
2023/08/09 01:56:38;;;;;;;10.77;6.85;;;;;;;13.95;100.00;101098.59;4981517;28;20483;-79
2023/08/09 01:59:05;;;;;;;11.13;7.00;;;;;;;14.18;100.00;101114.38;4980639;28;20026;-79
2023/08/09 02:01:31;;;;;;;12.20;7.82;;;;;;;13.92;100.00;101118.31;4986012;28;20030;-79
2023/08/09 02:03:56;;;;;;;13.27;7.85;;;;;;;13.81;100.00;101118.25;4983904;28;20038;-79
2023/08/09 02:06:22;;;;;;;14.85;8.45;;;;;;;13.76;100.00;101125.03;4976657;28;20530;-79
2023/08/09 02:08:47;;;;;;;10.57;7.85;;;;;;;13.75;100.00;101129.06;4979065;28;20059;-79
2023/08/09 02:11:12;;;;;;;10.60;7.00;;;;;;;13.65;100.00;101132.63;4983578;28;20402;-79
2023/08/09 02:13:39;;;;;;;11.05;7.45;;;;;;;13.50;100.00;101114.06;4973082;28;20030;-79
2023/08/09 02:16:05;;;;;;;11.02;7.25;;;;;;;13.81;100.00;101121.06;4977669;28;20102;-79
2023/08/09 02:18:32;;;;;;;11.00;6.40;;;;;;;13.79;100.00;101117.84;4987494;28;20109;-79
2023/08/09 02:20:59;;;;;;;12.45;8.52;;;;;;;13.57;100.00;101123.31;5004856;28;20065;-79
2023/08/09 02:23:25;;;;;;;10.93;7.85;;;;;;;13.75;100.00;101131.09;4992526;28;20026;-79
2023/08/09 02:25:55;;;;;;;12.90;7.80;;;;;;;13.85;100.00;101140.75;4982713;28;20039;-79
2023/08/09 02:28:21;;;;;;;12.27;7.53;;;;;;;13.79;100.00;101132.72;4986119;28;20026;-79
2023/08/09 02:30:47;;;;;;;14.20;8.48;;;;;;;13.44;100.00;101138.13;4987186;28;20048;-79
2023/08/09 02:33:12;;;;;;;14.40;8.32;;;;;;;13.48;100.00;101134.13;4976350;28;20030;-79
2023/08/09 02:35:59;;;;;;;14.88;8.75;;;;;;;13.66;100.00;101127.81;4971843;28;20081;-79
2023/08/09 02:38:26;;;;;;;12.68;7.63;;;;;;;13.75;100.00;101142.34;4985312;28;20030;-79
2023/08/09 02:40:52;;;;;;;15.52;9.05;;;;;;;13.37;100.00;101131.25;4986837;28;20525;-79
2023/08/09 02:43:18;;;;;;;10.80;7.43;;;;;;;13.59;100.00;101122.94;4983650;28;20030;-79
2023/08/09 02:45:44;;;;;;;12.00;7.68;;;;;;;13.69;100.00;101149.53;4981426;28;20022;-79
2023/08/09 02:48:10;;;;;;;13.60;7.47;;;;;;;13.70;100.00;101151.13;4980833;28;20103;-79
2023/08/09 02:50:36;;;;;;;14.88;7.75;;;;;;;13.74;100.00;101146.34;4980252;28;20030;-79
2023/08/09 02:53:03;;;;;;;11.30;8.02;;;;;;;13.56;100.00;101147.03;4981697;28;20033;-79
2023/08/09 02:55:30;;;;;;;14.82;8.55;;;;;;;13.63;100.00;101141.44;4980117;28;20483;-79
2023/08/09 02:57:55;;;;;;;13.48;9.02;;;;;;;13.73;100.00;101150.38;4982156;28;20030;-78
2023/08/09 03:00:21;;;;;;;11.00;6.85;;;;;;;13.88;100.00;101151.25;4979928;28;20033;-79
2023/08/09 03:02:46;;;;;;;14.55;7.88;;;;;;;13.88;100.00;101146.41;4981582;28;20045;-79
2023/08/09 03:05:11;;;;;;;13.43;7.88;;;;;;;13.47;100.00;101142.94;4982173;28;20045;-79
2023/08/09 03:07:37;;;;;;;15.60;9.40;;;;;;;13.63;100.00;101158.31;4985056;28;20448;-78
2023/08/09 03:10:03;;;;;;;13.48;9.05;;;;;;;13.57;100.00;101159.88;4982086;28;20104;-79
2023/08/09 03:12:29;;;;;;;11.30;7.18;;;;;;;13.73;100.00;101162.41;4982951;28;20061;-79
2023/08/09 03:14:55;;;;;;;11.65;7.13;;;;;;;13.69;100.00;101147.53;4984065;28;20102;-79
2023/08/09 03:17:21;;;;;;;12.20;7.20;;;;;;;13.46;100.00;101150.59;4989962;28;20502;-79
2023/08/09 03:19:46;;;;;;;10.98;7.18;;;;;;;13.75;100.00;101170.47;4986576;28;20373;-79
2023/08/09 03:22:12;;;;;;;13.30;7.90;;;;;;;13.65;100.00;101157.16;4983990;28;20022;-79
2023/08/09 03:24:38;;;;;;;13.02;7.75;;;;;;;13.53;100.00;101167.50;4978117;28;20031;-78
2023/08/09 03:27:04;;;;;;;12.75;7.13;;;;;;;13.68;100.00;101173.22;4984655;28;20023;-79
2023/08/09 03:29:29;;;;;;;11.18;7.50;;;;;;;13.74;100.00;101163.22;4986880;28;20033;-79
2023/08/09 03:31:55;;;;;;;9.45;6.63;;;;;;;13.76;100.00;101174.88;4980202;28;20031;-79
2023/08/09 03:34:20;;;;;;;9.88;6.10;;;;;;;13.74;100.00;101180.88;4983352;28;20030;-79
2023/08/09 03:36:46;;;;;;;12.15;7.00;;;;;;;13.73;100.00;101170.06;4983024;28;20030;-79
2023/08/09 03:39:11;;;;;;;11.85;7.28;;;;;;;13.69;100.00;101172.03;4990071;28;20029;-79
2023/08/09 03:41:36;;;;;;;13.18;7.57;;;;;;;13.42;100.00;101173.03;4984369;28;20023;-78
2023/08/09 03:44:02;;;;;;;9.82;6.57;;;;;;;13.44;100.00;101188.75;4967376;28;20527;-79
2023/08/09 03:46:28;;;;;;;10.82;7.28;;;;;;;13.54;100.00;101193.63;4968598;28;20487;-79
2023/08/09 03:48:54;;;;;;;11.70;7.03;;;;;;;13.67;100.00;101196.94;4975990;28;20034;-79
2023/08/09 03:51:19;;;;;;;11.40;6.88;;;;;;;13.81;100.00;101194.22;4984202;28;20022;-79
2023/08/09 03:53:44;;;;;;;11.20;7.30;;;;;;;13.69;100.00;101195.34;4982868;28;20116;-79
2023/08/09 03:56:10;;;;;;;9.52;6.53;;;;;;;13.75;100.00;101199.41;4978180;28;20501;-79
2023/08/09 03:58:37;;;;;;;13.80;6.53;;;;;;;13.85;100.00;101203.50;4978930;28;20548;-79
2023/08/09 04:01:02;;;;;;;12.20;7.55;;;;;;;13.80;100.00;101201.84;4978076;28;20452;-79
2023/08/09 04:03:30;;;;;;;10.43;6.88;;;;;;;13.87;100.00;101209.53;4984699;28;20144;-79
2023/08/09 04:05:56;;;;;;;13.02;7.50;;;;;;;13.46;100.00;101200.41;4976301;28;20030;-79
2023/08/09 04:08:25;;;;;;;15.02;6.88;;;;;;;13.65;100.00;101213.41;4977857;28;20030;-79
2023/08/09 04:10:52;;;;;;;9.95;6.07;;;;;;;13.82;100.00;101209.88;4973730;28;20364;-79
2023/08/09 04:13:17;;;;;;;11.00;7.75;;;;;;;13.60;100.00;101221.00;4993974;28;20046;-79
2023/08/09 04:15:43;;;;;;;11.50;7.28;;;;;;;13.61;100.00;101219.78;4971244;28;20058;-79
2023/08/09 04:18:08;;;;;;;10.57;7.45;;;;;;;13.61;100.00;101219.78;4976286;28;20026;-79
2023/08/09 04:20:34;;;;;;;10.30;6.30;;;;;;;13.56;100.00;101200.47;4984223;28;20023;-79
2023/08/09 04:23:03;;;;;;;8.07;5.43;;;;;;;13.82;100.00;101227.56;4998684;28;20030;-79
2023/08/09 04:25:28;;;;;;;11.38;7.55;;;;;;;13.83;100.00;101228.41;4984617;28;20026;-79
2023/08/09 04:27:55;;;;;;;10.98;5.63;;;;;;;13.73;100.00;101220.69;4990188;28;20037;-79
2023/08/09 04:30:22;;;;;;;13.73;7.78;;;;;;;13.82;100.00;101226.78;4983914;28;20375;-79
2023/08/09 04:32:48;;;;;;;8.52;5.28;;;;;;;13.67;100.00;101222.25;4990536;28;20479;-79
2023/08/09 04:35:14;;;;;;;10.63;5.90;;;;;;;13.84;100.00;101238.44;4984810;28;20026;-79
2023/08/09 04:37:40;;;;;;;9.13;6.35;;;;;;;13.61;100.00;101239.47;4988296;28;20827;-79
2023/08/09 04:40:10;;;;;;;9.50;6.03;;;;;;;13.77;100.00;101225.13;4986113;28;20406;-79
2023/08/09 04:42:42;;;;;;;12.35;7.68;;;;;;;13.86;100.00;101243.69;4986699;28;20161;-79
2023/08/09 04:45:12;;;;;;;14.05;6.30;;;;;;;13.74;100.00;101241.97;4985909;28;20038;-79
2023/08/09 04:47:37;;;;;;;9.95;6.03;;;;;;;13.70;100.00;101230.69;4988594;28;20049;-79
2023/08/09 04:50:04;;;;;;;9.13;6.18;;;;;;;13.83;100.00;101250.91;4985623;28;20446;-79
2023/08/09 04:52:31;;;;;;;14.18;6.60;;;;;;;13.89;100.00;101249.31;4969133;28;20065;-79
2023/08/09 04:54:56;;;;;;;12.70;7.07;;;;;;;13.72;100.00;101244.38;4985176;28;20065;-79
2023/08/09 04:57:22;;;;;;;12.65;7.10;;;;;;;13.69;100.00;101251.59;4986839;28;20424;-79
2023/08/09 04:59:48;;;;;;;11.57;7.10;;;;;;;13.74;100.00;101256.06;4984671;28;20390;-79
2023/08/09 05:02:13;;;;;;;11.73;6.47;;;;;;;13.76;100.00;101259.28;4985792;28;20026;-79
2023/08/09 05:04:39;;;;;;;9.88;5.97;;;;;;;13.71;100.00;101262.47;4987209;28;20033;-79
2023/08/09 05:07:04;;;;;;;12.70;5.70;;;;;;;13.68;100.00;101254.78;4987867;28;20022;-78
2023/08/09 05:09:31;;;;;;;12.48;7.15;;;;;;;13.49;100.00;101265.13;4986092;28;20054;-79
2023/08/09 05:11:56;;;;;;;11.70;6.50;;;;;;;13.61;100.00;101270.41;4986077;28;20384;-79
2023/08/09 05:14:22;;;;;;;9.77;5.97;;;;;;;13.79;100.00;101273.38;4982252;28;20054;-79
2023/08/09 05:16:47;;;;;;;12.48;6.07;;;;;;;13.83;100.00;101273.41;4986323;28;20297;-79
2023/08/09 05:19:13;;;;;;;9.25;5.45;;;;;;;13.83;100.00;101267.78;4986792;28;20481;-79
2023/08/09 05:21:38;;;;;;;7.65;4.63;;;;;;;13.97;100.00;101278.31;4982035;28;20435;-79
2023/08/09 05:24:04;;;;;;;8.93;6.15;;;;;;;13.89;100.00;101277.47;4981795;28;20515;-79
2023/08/09 05:26:29;;;;;;;12.02;5.80;;;;;;;13.68;100.00;101260.41;4980915;28;20018;-79
2023/08/09 05:28:55;;;;;;;9.13;5.00;;;;;;;13.67;100.00;101270.06;4977676;28;20053;-79
2023/08/09 05:31:20;;;;;;;8.60;5.57;;;;;;;13.61;100.00;101278.06;4982729;28;20061;-79
2023/08/09 05:33:45;;;;;;;8.48;5.47;;;;;;;13.57;100.00;101272.38;4986800;28;20023;-79
2023/08/09 05:36:11;;;;;;;7.20;4.65;;;;;;;13.73;100.00;101269.31;4990408;28;20093;-79
2023/08/09 05:38:36;;;;;;;18.20;6.57;;;;;;;13.65;100.00;101278.91;4990355;28;20026;-79
2023/08/09 05:41:02;;;;;;;11.23;6.28;;;;;;;13.76;100.00;101285.41;4993717;28;20117;-79
2023/08/09 05:43:27;;;;;;;8.95;5.93;;;;;;;13.92;100.00;101287.16;4989336;28;20126;-79
2023/08/09 05:45:52;;;;;;;8.32;5.20;;;;;;;14.00;100.00;101280.38;4989905;28;20029;-79
2023/08/09 05:48:18;;;;;;;10.65;5.70;;;;;;;13.98;100.00;101285.59;4989704;28;20022;-79
2023/08/09 05:50:43;;;;;;;7.03;4.55;;;;;;;14.02;100.00;101292.06;4990801;28;20146;-79
2023/08/09 05:53:09;;;;;;;12.35;5.45;;;;;;;13.94;100.00;101299.63;4989153;28;20518;-79
2023/08/09 05:55:35;;;;;;;13.63;6.65;;;;;;;13.88;100.00;101287.13;4996035;28;20072;-79
2023/08/09 05:58:01;;;;;;;9.60;5.78;;;;;;;13.81;100.00;101284.25;4989973;28;20030;-79
2023/08/09 06:00:26;;;;;;;10.60;5.88;;;;;;;13.83;100.00;101290.31;4985221;28;20504;-79
2023/08/09 06:02:52;;;;;;;7.85;5.43;;;;;;;14.10;100.00;101304.94;4989316;28;20034;-79
2023/08/09 06:05:22;;;;;;;10.30;5.45;;;;;;;14.17;100.00;101321.09;4987608;28;20030;-79
2023/08/09 06:07:48;;;;;;;10.82;5.95;;;;;;;14.01;100.00;101312.94;4986948;28;20052;-79
2023/08/09 06:10:13;;;;;;;11.65;5.78;;;;;;;14.09;100.00;101331.50;4989639;28;20492;-79
2023/08/09 06:12:38;;;;;;;8.73;5.22;;;;;;;14.07;100.00;101319.00;4989770;28;20026;-79
2023/08/09 06:15:07;;;;;;;9.30;5.38;;;;;;;14.03;100.00;101327.41;4986999;28;20066;-79
2023/08/09 06:17:33;;;;;;;11.23;5.85;;;;;;;14.21;100.00;101341.63;4985456;28;20037;-79
2023/08/09 06:19:59;;;;;;;15.07;5.13;;;;;;;14.15;100.00;101326.31;4987578;28;20043;-79
2023/08/09 06:22:24;;;;;;;12.98;5.97;;;;;;;14.21;100.00;101339.63;4983863;28;20120;-79
2023/08/09 06:24:50;;;;;;;12.10;5.22;;;;;;;14.22;100.00;101341.22;4982981;28;20026;-79
2023/08/09 06:27:15;;;;;;;13.77;6.88;;;;;;;13.90;100.00;101341.00;4988787;28;20022;-79
2023/08/09 06:29:40;;;;;;;14.02;6.03;;;;;;;13.87;100.00;101330.53;4989959;28;20089;-79
2023/08/09 06:32:06;;;;;;;13.68;6.07;;;;;;;14.09;100.00;101342.75;4988404;28;20112;-79
2023/08/09 06:34:31;;;;;;;13.98;6.60;;;;;;;14.26;100.00;101341.25;4985132;28;20030;-79
2023/08/09 06:36:57;;;;;;;9.38;5.60;;;;;;;14.34;100.00;101337.28;4988256;28;20469;-79
2023/08/09 06:39:22;;;;;;;11.73;6.28;;;;;;;14.40;100.00;101352.63;4988960;28;20449;-79
2023/08/09 06:41:49;;;;;;;14.23;7.50;;;;;;;14.30;100.00;101352.56;4987707;28;20542;-79
2023/08/09 06:44:15;;;;;;;14.90;8.35;;;;;;;14.29;100.00;101362.19;4997367;28;20116;-79
2023/08/09 06:46:42;;;;;;;17.23;8.18;;;;;;;14.20;100.00;101348.44;4988761;28;20090;-79
2023/08/09 06:49:07;;;;;;;11.40;7.18;;;;;;;14.28;100.00;101366.22;5000290;28;20058;-79
2023/08/09 06:51:32;;;;;;;12.77;7.18;;;;;;;14.31;100.00;101366.22;4998479;28;20589;-79
2023/08/09 06:53:58;;;;;;;12.57;7.10;;;;;;;14.48;100.00;101375.19;4989086;28;20297;-79
2023/08/09 06:56:23;;;;;;;9.82;6.45;;;;;;;14.61;100.00;101380.13;4992617;28;20033;-79
2023/08/09 06:58:49;;;;;;;10.10;6.40;;;;;;;14.50;100.00;101370.78;4988391;28;20026;-79
2023/08/09 07:01:14;;;;;;;12.73;7.72;;;;;;;14.41;100.00;101364.69;4983076;28;20358;-79
2023/08/09 07:03:39;;;;;;;16.33;7.90;;;;;;;14.53;100.00;101380.47;4990237;28;20482;-79
2023/08/09 07:06:05;;;;;;;12.52;6.90;;;;;;;14.50;100.00;101367.94;4990693;28;20390;-79
2023/08/09 07:08:31;;;;;;;16.17;8.18;;;;;;;14.62;100.00;101369.66;4988398;28;20031;-79
2023/08/09 07:10:56;;;;;;;14.88;8.07;;;;;;;14.60;100.00;101383.34;5003728;28;20084;-79
2023/08/09 07:13:21;;;;;;;18.70;7.90;;;;;;;14.50;100.00;101358.69;4988781;28;20022;-79
2023/08/09 07:15:47;;;;;;;16.92;8.30;;;;;;;14.63;100.00;101376.91;4980512;28;20046;-79
2023/08/09 07:18:13;;;;;;;16.30;7.85;;;;;;;14.60;100.00;101377.72;4987472;28;20050;-79
2023/08/09 07:20:38;;;;;;;16.95;7.95;;;;;;;14.59;100.00;101376.09;4988471;28;20026;-79
2023/08/09 07:23:04;;;;;;;16.02;7.50;;;;;;;14.63;100.00;101368.44;4989159;28;20030;-80
2023/08/09 07:25:29;;;;;;;16.75;9.20;;;;;;;14.71;100.00;101372.13;4983875;28;20030;-79
2023/08/09 07:27:55;;;;;;;16.65;7.07;;;;;;;14.80;100.00;101381.06;4989068;28;20465;-79
2023/08/09 07:30:20;;;;;;;16.60;8.30;;;;;;;14.84;100.00;101382.69;4983827;28;20463;-79
2023/08/09 07:32:47;;;;;;;18.05;7.63;;;;;;;15.03;100.00;101386.38;4984815;28;20563;-79
2023/08/09 07:35:13;;;;;;;13.95;8.50;;;;;;;15.09;100.00;101387.59;4984137;28;20022;-79
2023/08/09 07:37:41;;;;;;;14.57;7.05;;;;;;;15.15;100.00;101390.84;4987571;28;20057;-79
2023/08/09 07:40:08;;;;;;;16.55;7.43;;;;;;;15.25;100.00;101395.72;4983661;28;20026;-79
2023/08/09 07:42:35;;;;;;;11.70;7.00;;;;;;;15.24;100.00;101378.00;4980010;28;20025;-80
2023/08/09 07:45:00;;;;;;;11.20;7.15;;;;;;;15.18;100.00;101399.34;4990135;28;20533;-80
2023/08/09 07:47:26;;;;;;;11.30;6.55;;;;;;;15.16;100.00;101387.66;4987587;28;20030;-80
2023/08/09 07:49:51;;;;;;;16.48;7.20;;;;;;;15.23;100.00;101384.84;4986197;28;20561;-80
2023/08/09 07:52:17;;;;;;;10.27;7.80;;;;;;;15.32;100.00;101389.28;4979492;28;20069;-80
2023/08/09 07:54:43;;;;;;;15.73;6.80;;;;;;;15.40;100.00;101393.75;4986876;28;20047;-80
2023/08/09 07:57:09;;;;;;;8.02;5.68;;;;;;;15.57;100.00;101407.09;4987735;28;20022;-80
2023/08/09 07:59:34;;;;;;;11.60;6.38;;;;;;;15.62;100.00;101395.44;4985568;28;20014;-80
2023/08/09 08:02:00;;;;;;;8.25;6.32;;;;;;;15.70;100.00;101403.91;4986070;28;20038;-80
2023/08/09 08:04:25;;;;;;;10.77;5.57;;;;;;;15.84;100.00;101409.59;4986397;28;20483;-80
2023/08/09 08:06:51;;;;;;;9.45;6.05;;;;;;;15.95;100.00;101404.75;4986283;28;20100;-80
2023/08/09 08:09:18;;;;;;;6.47;5.07;;;;;;;16.12;100.00;101396.69;4982274;28;20050;-80
2023/08/09 08:11:44;;;;;;;9.45;5.03;;;;;;;16.08;100.00;101391.03;4988849;28;20109;-80
2023/08/09 08:14:09;;;;;;;11.95;6.05;;;;;;;16.23;100.00;101406.78;4988953;28;20585;-80
2023/08/09 08:16:35;;;;;;;11.32;4.65;;;;;;;16.21;100.00;101397.09;4987675;28;20038;-80
2023/08/09 08:19:02;;;;;;;7.88;5.20;;;;;;;16.29;100.00;101401.53;4987075;28;20018;-80
2023/08/09 08:21:28;;;;;;;8.98;5.40;;;;;;;16.28;100.00;101414.06;4987274;28;20041;-80
2023/08/09 08:23:53;;;;;;;10.23;5.47;;;;;;;16.40;100.00;101422.13;4987361;28;20041;-80
2023/08/09 08:26:19;;;;;;;7.05;4.95;;;;;;;16.61;100.00;101423.28;4984930;28;20030;-80
2023/08/09 08:28:46;;;;;;;8.77;4.47;;;;;;;16.42;100.00;101419.69;4985345;28;20022;-80
2023/08/09 08:31:12;;;;;;;7.85;4.35;;;;;;;16.80;100.00;101431.38;4988325;28;20089;-80
2023/08/09 08:33:44;;;;;;;6.13;3.40;;;;;;;16.55;100.00;101427.72;4986460;28;20026;-80
2023/08/09 08:36:10;;;;;;;7.10;3.40;;;;;;;16.89;100.00;101449.91;4986496;28;20036;-80
2023/08/09 08:38:35;;;;;;;9.75;3.42;;;;;;;16.73;100.00;101445.47;4981899;28;20026;-80
2023/08/09 08:41:00;;;;;;;6.28;2.67;;;;;;;16.89;100.00;101449.91;4987468;28;20026;-80
2023/08/09 08:43:26;;;;;;;4.70;3.05;;;;;;;17.01;100.00;101457.94;4988335;28;20034;-80
2023/08/09 08:45:53;;;;;;;3.72;2.97;;;;;;;16.95;100.00;101462.41;4982676;28;20553;-80
2023/08/09 08:48:19;;;;;;;7.65;3.28;;;;;;;17.21;100.00;101466.78;4994299;28;20050;-80
2023/08/09 08:50:47;;;;;;;4.72;2.75;;;;;;;17.07;100.00;101450.66;4987248;28;20022;-80
2023/08/09 08:53:13;;;;;;;5.25;2.55;;;;;;;17.31;100.00;101465.13;4986883;28;20026;-81
2023/08/09 08:55:39;;;;;;;3.83;3.05;;;;;;;17.46;100.00;101469.53;4986742;28;20117;-80
2023/08/09 08:58:04;;;;;;;4.90;3.33;;;;;;;17.45;100.00;101476.38;4985866;28;20041;-81
2023/08/09 09:00:30;;;;;;;6.70;2.85;;;;;;;17.45;100.00;101470.72;4985577;28;20030;-80
2023/08/09 09:02:56;;;;;;;6.72;3.13;;;;;;;17.39;100.00;101472.38;4988822;28;20030;-80
2023/08/09 09:05:23;;;;;;;5.63;2.72;;;;;;;17.42;100.00;101477.22;4986476;28;20070;-81
2023/08/09 09:07:56;;;;;;;5.35;2.85;;;;;;;17.32;100.00;101478.06;4986537;28;20122;-81
2023/08/09 09:10:22;;;;;;;4.20;2.50;;;;;;;17.56;100.00;101473.50;4982796;28;20498;-81
2023/08/09 09:12:57;;;;;;;3.38;2.60;;;;;;;17.47;100.00;101474.75;4989952;28;20029;-81
2023/08/09 09:15:23;;;;;;;3.67;2.42;;;;;;;17.68;100.00;101456.84;4987273;28;20532;-80
2023/08/09 09:17:49;;;;;;;3.20;1.83;;;;;;;17.67;99.96;101472.25;4989188;28;20567;-80
2023/08/09 09:20:23;;;;;;;2.80;1.90;;;;;;;17.79;97.22;101470.97;4990337;28;20030;-81
2023/08/09 09:22:53;;;;;;;5.20;2.72;;;;;;;17.83;99.39;101468.91;4990527;28;20022;-81
2023/08/09 09:25:18;;;;;;;2.35;1.65;;;;;;;18.03;96.49;101486.22;4987744;28;20384;-81
2023/08/09 09:27:47;;;;;;;3.58;1.50;;;;;;;18.00;87.79;101474.91;4989215;28;20026;-81
2023/08/09 09:30:19;;;;;;;1.77;1.45;;;;;;;18.23;92.22;101480.00;4999400;28;20064;-81
2023/08/09 09:32:54;;;;;;;3.45;1.33;;;;;;;18.35;93.80;101488.00;4990270;28;20030;-81
2023/08/09 09:35:28;;;;;;;1.30;0.90;;;;;;;18.41;89.15;101477.81;4990738;28;20089;-81
2023/08/09 09:37:55;;;;;;;2.25;1.08;;;;;;;18.62;88.63;101493.84;4979602;28;20030;-81
2023/08/09 09:40:27;;;;;;;2.92;1.75;;;;;;;18.57;87.78;101487.81;4990936;28;20024;-81
2023/08/09 09:42:54;;;;;;;2.08;1.10;;;;;;;18.24;84.61;101475.94;4986617;28;20410;-81
2023/08/09 09:45:24;;;;;;;3.03;0.95;;;;;;;18.14;71.69;101491.00;4989363;28;20049;-81
2023/08/09 09:47:54;;;;;;;2.17;1.20;;;;;;;18.14;96.59;101477.63;4989827;28;20134;-81
2023/08/09 09:50:25;;;;;;;5.00;1.27;;;;;;;18.39;75.84;101483.09;4990067;28;20380;-81
2023/08/09 09:52:52;;;;;;;1.33;1.10;;;;;;;18.37;84.09;101479.88;4989778;28;20136;-81
2023/08/09 09:55:20;;;;;;;1.27;0.90;;;;;;;18.33;83.37;101462.09;4995011;28;20026;-82
2023/08/09 09:57:49;;;;;;;1.30;0.90;;;;;;;18.56;82.98;101481.34;4988530;28;20130;-82
2023/08/09 10:00:15;;;;;;;2.58;1.10;;;;;;;18.48;90.57;101474.91;4987710;28;20088;-81
2023/08/09 10:02:47;;;;;;;4.25;1.50;;;;;;;18.71;79.29;101481.22;4988094;28;20145;-82
2023/08/09 10:05:29;;;;;;;3.72;1.67;;;;;;;18.86;82.56;101477.81;4989940;28;20129;-82
2023/08/09 10:07:56;;;;;;;3.47;0.90;;;;;;;18.80;83.95;101476.69;4984863;28;20317;-82
2023/08/09 10:10:22;;;;;;;3.53;1.00;;;;;;;18.71;83.85;101470.66;4989560;28;20034;-82
2023/08/09 10:12:52;;;;;;;2.35;1.50;;;;;;;18.68;79.61;101497.03;4989857;28;20030;-82
2023/08/09 10:15:24;;;;;;;2.65;1.52;;;;;;;18.84;85.71;101468.94;4985709;28;20113;-82
2023/08/09 10:17:54;;;;;;;2.80;1.10;;;;;;;19.08;80.65;101477.63;4986262;28;20045;-82
2023/08/09 10:20:22;;;;;;;4.35;1.40;;;;;;;19.01;83.28;101483.34;4988021;28;20523;-82
2023/08/09 10:22:50;;;;;;;2.67;1.30;;;;;;;19.04;75.59;101494.69;4988920;28;20494;-82
2023/08/09 10:25:16;;;;;;;1.63;1.08;;;;;;;19.18;85.96;101485.19;4988123;28;20030;-82
2023/08/09 10:28:00;;;;;;;4.95;1.85;;;;;;;18.92;82.85;101480.22;4984499;28;20669;-82
2023/08/09 10:30:28;;;;;;;2.88;1.40;;;;;;;18.92;83.18;101469.69;4991850;28;20018;-82
2023/08/09 10:32:55;;;;;;;1.30;1.20;;;;;;;19.13;79.67;101488.50;4988637;28;20499;-82
2023/08/09 10:35:43;;;;;;;2.88;1.45;;;;;;;19.47;79.00;101479.16;4988818;28;20022;-82
2023/08/09 10:38:12;;;;;;;1.95;1.50;;;;;;;19.31;84.58;101479.75;4981932;28;20031;-82
2023/08/09 10:40:41;;;;;;;2.47;1.23;;;;;;;19.45;86.18;101487.31;4989209;28;20069;-82
2023/08/09 10:43:08;;;;;;;2.15;1.33;;;;;;;19.65;88.39;101484.63;4984147;28;20034;-82
2023/08/09 10:45:34;;;;;;;2.33;1.77;;;;;;;19.57;88.79;101480.28;4982110;28;20038;-82
2023/08/09 10:48:23;;;;;;;4.43;1.30;;;;;;;19.96;78.27;101491.09;4989272;28;20101;-82
2023/08/09 10:51:07;;;;;;;2.78;1.35;;;;;;;20.04;88.00;101495.44;4989616;28;20064;-82
2023/08/09 10:53:59;;;;;;;3.08;1.88;;;;;;;20.13;89.83;101488.41;5002930;28;20030;-83
2023/08/09 10:56:27;;;;;;;3.07;2.23;;;;;;;19.78;82.07;101504.78;4986335;28;20026;-82
2023/08/09 10:58:52;;;;;;;1.83;1.27;;;;;;;19.71;82.54;101508.47;4981688;28;20495;-83
2023/08/09 11:01:18;;;;;;;2.35;1.65;;;;;;;19.67;82.34;101485.81;4982049;28;20021;-82
2023/08/09 11:03:44;;;;;;;6.20;2.13;;;;;;;20.01;82.19;101504.84;4984792;28;20030;-83
2023/08/09 11:06:09;;;;;;;3.17;1.92;;;;;;;19.90;85.00;101504.16;4988610;28;20052;-83
2023/08/09 11:08:35;;;;;;;5.00;2.00;;;;;;;19.89;83.71;101496.88;4986695;28;20030;-82
2023/08/09 11:11:01;;;;;;;3.63;2.47;;;;;;;19.97;82.84;101501.25;4981191;28;20037;-82
2023/08/09 11:13:27;;;;;;;3.88;2.55;;;;;;;19.91;87.19;101497.28;4976613;28;20391;-82